Curtis Field
KBBD : now visible

Airfield :











YOU CAN JOIN US ON...

 
LOGIN :

Register | Disclaimer

   EN    FR    IT 

 









Legend :    VFR   Marginal VFR   IFR   Intensive IFR   Very Intensive IFR
Visi :
Ceiling :
>= 8 km
>= 3000ft
5 to 8 km
1000 to 3000 ft
1500m to 5 km
500 to 1000 ft
800 to 1500m
200 to 500 ft
< 800m
< 200 ft
Symbols :   Thunderstorms  Fog  Heavy snow  Heavy precipitations  Wind > 20 kt






- Airport Elevation : 1827 ft


KBBD - Curtis Field

CURRENT METAR :
  • 072055Z AUTO 23014KT 10SM CLR 31/15 A2991 RMK AO2

EXPIRED METARs :
  • 072035Z AUTO 21011G16KT 10SM CLR 30/14 A2993 RMK AO2
  • 072015Z AUTO 22013G19KT 10SM FEW055 30/14 A2994 RMK AO2
  • 071955Z AUTO 25010KT 10SM SCT055 29/16 A2994 RMK AO2
  • 071935Z AUTO 23007G17KT 10SM CLR 29/15 A2995 RMK AO2
  • 071915Z AUTO 25008G14KT 10SM CLR 29/15 A2996 RMK AO2
  • 071855Z AUTO 24010KT 10SM CLR 28/15 A2996 RMK AO2
  • 071835Z AUTO 24011KT 10SM CLR 28/15 A2997 RMK AO2
  • 071815Z AUTO 25011G16KT 10SM CLR 28/16 A2998 RMK AO2

TAF KBBD
Valid from the 07 at 18:00 until the 08 at 18:00 UTC


071738Z 0718/0818 22012KT P6SM BKN250
FM080000 19005KT P6SM BKN250
FM081500 24007KT P6SM SCT100 BKN250



MET'MAP, your aeronautical weather chart ! - Copyright ORBIFLY December 2007 - Disclaimer

ORBIFLY MET'MAP TEAM :

Programming & Development : Alexandra Zaïnal
Concept & original design : Baudouin d'Aumeries
Assistance for programming : Marc-Olivier Méhu
Technical & hardware support : Manuel Goepfert

Contact : metmap@orbifly.com




SOURCES & CREDITS :

   NOAA       Earth
Advisory